Sea Cloud II — 9HUE6 — position and weather

sailwx.info

Track history (hours):
 
Tides and Currents Weather Stations Pressure Air Temp Water Temp Dewpoint Dewpoint Depression Visibility Wind Speed Wind Dir Waves Ship Positions

Sea Cloud II

Ship's website: http://www.seacloud.com/en/the-ships/sea-cloud-ii.html

Last reported at 2017-Jan-21 14:24 UTC. Time now 2017-Jan-21 15:34 UTC.
Position N 18°26' W 064°46'.

Length 117 m; draft 6 m.

Type: Passenger vessel. MMSI: 248953000.

Date/timePositionNaut miles runAvg speedWind from/ knotsBaromVisibWave heightAir tempDewpointWater temp
2017-Jan-21 14:24N 18°26' W 064°46'0 0.0
2017-Jan-21 13:18N 18°26' W 064°46'0 0.0
2017-Jan-21 12:30N 18°26' W 064°46'1 1.4
2017-Jan-21 11:33N 18°25' W 064°45'7 6.7
2017-Jan-21 10:33N 18°29' W 064°39'7 7.1
2017-Jan-21 09:33N 18°32' W 064°32'8 7.8
2017-Jan-21 08:33N 18°33' W 064°24'8 6.9
2017-Jan-21 07:26N 18°31' W 064°16'7 7.7
2017-Jan-21 06:32N 18°28' W 064°10'39 7.7
2017-Jan-21 01:26N 18°06' W 063°35'1011.1
2017-Jan-21 00:33N 18°02' W 063°26'1111.0
2017-Jan-20 23:32N 17°57' W 063°15'1211.6
2017-Jan-20 22:30N 17°51' W 063°04'9 6.5
2017-Jan-20 21:07N 17°49' W 062°55'33 1.2
2017-Jan-19 17:04N 17°17' W 062°44'37 3.7
2017-Jan-19 07:07N 16°42' W 062°30'3 6.2
2017-Jan-19 06:33N 16°39' W 062°29'7 7.3
2017-Jan-19 05:33N 16°33' W 062°26'16 7.4
2017-Jan-19 03:27N 16°21' W 062°16'39 4.9
2017-Jan-18 19:26N 15°53' W 061°46'  
Track history (hours):
 
Tides and Currents Weather Stations Pressure Air Temp Water Temp Dewpoint Dewpoint Depression Visibility Wind Speed Wind Dir Waves Ship Positions

Sea Cloud II

Ship's website: http://www.seacloud.com/en/the-ships/sea-cloud-ii.html

Last reported at 2017-Jan-21 14:24 UTC. Time now 2017-Jan-21 15:34 UTC.
Position N 18°26' W 064°46'.

Length 117 m; draft 6 m.

Type: Passenger vessel. MMSI: 248953000.

Date/timePositionNaut miles runAvg speedWind from/ knotsBaromVisibWave heightAir tempDewpointWater temp
2017-Jan-21 14:24N 18°26' W 064°46'0 0.0
2017-Jan-21 13:18N 18°26' W 064°46'0 0.0
2017-Jan-21 12:30N 18°26' W 064°46'1 1.4
2017-Jan-21 11:33N 18°25' W 064°45'7 6.7
2017-Jan-21 10:33N 18°29' W 064°39'7 7.1
2017-Jan-21 09:33N 18°32' W 064°32'8 7.8
2017-Jan-21 08:33N 18°33' W 064°24'8 6.9
2017-Jan-21 07:26N 18°31' W 064°16'7 7.7
2017-Jan-21 06:32N 18°28' W 064°10'39 7.7
2017-Jan-21 01:26N 18°06' W 063°35'1011.1
2017-Jan-21 00:33N 18°02' W 063°26'1111.0
2017-Jan-20 23:32N 17°57' W 063°15'1211.6
2017-Jan-20 22:30N 17°51' W 063°04'9 6.5
2017-Jan-20 21:07N 17°49' W 062°55'33 1.2
2017-Jan-19 17:04N 17°17' W 062°44'37 3.7
2017-Jan-19 07:07N 16°42' W 062°30'3 6.2
2017-Jan-19 06:33N 16°39' W 062°29'7 7.3
2017-Jan-19 05:33N 16°33' W 062°26'16 7.4
2017-Jan-19 03:27N 16°21' W 062°16'39 4.9
2017-Jan-18 19:26N 15°53' W 061°46'  

Dump ship's entire track history